Terminal Aerodrome Forecast
Issued by NWS Sioux Falls, SD

Home | Current Version | Previous Version | Graphics & Text | Print | Product List | Glossary Off
Versions: 1 2 3 4 5 6 7 8 9 10 11 12 13 14 15 16 17 18 19 20

667
FTUS43 KFSD 291026 AAC
TAFFSD
TAF AMD
KFSD 291026Z 2910/3006 04004KT P6SM SCT008 OVC015
      TEMPO 2910/2914 BKN008
     FM291400 06009KT P6SM OVC012
     FM291900 06010KT P6SM OVC035=

USA.gov is the U.S. government's official web portal to all federal, state and local government web resources and services.